Time;durP1;ratioP1;P1;durP2;ratioP2;P2;SDS_P1;SDS_P2;PMS_P1;PMS_P2;Temp;Humidity;BMP_temperature;BMP_pressure;BME280_temperature;BME280_humidity;BME280_pressure;Samples;Min_cycle;Max_cycle;Signal;HPM_P1;HPM_P2
2023/01/18 00:02:16;;;;;;;;;;;;;;;2.71;100.00;97492.50;5574524;31;33976;-71
2023/01/18 00:05:25;;;;;;;;;;;;;;;2.76;100.00;97509.25;5575669;31;34892;-71
2023/01/18 00:08:34;;;;;;;;;;;;;;;2.81;100.00;97512.09;5575699;31;34301;-71
2023/01/18 00:11:41;;;;;;;;;;;;;;;2.88;100.00;97504.31;5588858;31;33950;-71
2023/01/18 00:14:49;;;;;;;;;;;;;;;2.77;100.00;97495.16;5575523;31;34213;-71
2023/01/18 00:17:57;;;;;;;;;;;;;;;2.74;100.00;97466.75;5575226;31;34896;-71
2023/01/18 00:21:05;;;;;;;;;;;;;;;2.73;100.00;97461.69;5575133;31;34897;-70
2023/01/18 00:24:13;;;;;;;;;;;;;;;2.75;100.00;97450.06;5575179;31;34863;-71
2023/01/18 00:27:20;;;;;;;;;;;;;;;2.72;100.00;97439.13;5575166;31;34305;-71
2023/01/18 00:30:26;;;;;;;;;;;;;;;2.70;100.00;97441.16;5561807;31;33155;-71
2023/01/18 00:33:36;;;;;;;;;;;;;;;2.75;100.00;97450.06;5588581;31;35013;-70
2023/01/18 00:36:47;;;;;;;;;;;;;;;2.76;100.00;97471.81;5575277;31;35260;-70
2023/01/18 00:39:55;;;;;;;;;;;;;;;2.79;100.00;97489.75;5588512;31;34735;-71
2023/01/18 00:46:34;;;;;;;;;;;;;;;2.89;100.00;97546.03;5573941;31;35439;-70
2023/01/18 00:49:41;;;;;;;;;;;;;;;3.01;100.00;97590.84;5574429;31;33443;-70
2023/01/18 00:52:47;;;;;;;;;;;;;;;3.07;100.00;97603.19;5574698;31;34658;-70
2023/01/18 00:55:52;;;;;;;;;;;;;;;3.05;100.00;97605.97;5574689;31;34826;-71
2023/01/18 00:58:57;;;;;;;;;;;;;;;3.06;100.00;97612.03;5574170;31;33141;-71
2023/01/18 01:02:02;;;;;;;;;;;;;;;3.13;100.00;97602.44;5574264;31;34908;-71
2023/01/18 01:08:38;;;;;;;;;;;;;;;3.13;100.00;97585.91;5577233;31;34695;-70
2023/01/18 01:12:33;;;;;;;;;;;;;;;3.06;100.00;97599.75;5574460;31;34248;-71
2023/01/18 01:28:54;;;;;;;;;;;;;;;3.15;100.00;97558.50;5548986;32;34267;-70
2023/01/18 01:32:02;;;;;;;;;;;;;;;3.10;100.00;97550.41;5548958;32;34306;-70
2023/01/18 01:35:10;;;;;;;;;;;;;;;3.03;100.00;97546.94;5548911;32;34733;-70
2023/01/18 01:38:21;;;;;;;;;;;;;;;2.99;100.00;97540.47;5547462;32;34332;-70
2023/01/18 01:41:35;;;;;;;;;;;;;;;2.92;100.00;97569.22;5549091;32;34838;-70
2023/01/18 01:44:44;;;;;;;;;;;;;;;2.90;100.00;97593.97;5548773;32;34736;-71
2023/01/18 01:47:56;;;;;;;;;;;;;;;3.01;100.00;97590.84;5547286;32;32653;-71
2023/01/18 01:51:03;;;;;;;;;;;;;;;2.98;100.00;97605.13;5547766;32;34189;-71
2023/01/18 01:54:15;;;;;;;;;;;;;;;3.00;100.00;97600.50;5548831;32;34091;-71
2023/01/18 01:57:24;;;;;;;;;;;;;;;3.07;100.00;97590.09;5548886;32;34122;-71
2023/01/18 02:00:32;;;;;;;;;;;;;;;3.08;100.00;97598.75;5548893;32;34472;-72
2023/01/18 02:03:41;;;;;;;;;;;;;;;3.13;100.00;97604.25;5548035;32;34341;-71
2023/01/18 02:06:54;;;;;;;;;;;;;;;3.13;100.00;97602.44;5535594;32;35240;-71
2023/01/18 02:10:02;;;;;;;;;;;;;;;3.22;100.00;97590.81;5535413;32;34082;-72
2023/01/18 02:13:11;;;;;;;;;;;;;;;3.39;100.00;97586.09;5548710;32;34884;-72
2023/01/18 02:16:24;;;;;;;;;;;;;;;3.31;100.00;97589.69;5545457;31;33573;-71
2023/01/18 02:19:50;;;;;;;;;;;;;;;3.35;100.00;97603.22;5574267;31;33591;-71
2023/01/18 02:22:58;;;;;;;;;;;;;;;3.32;100.00;97624.56;5586964;31;34743;-72
2023/01/18 02:26:24;;;;;;;;;;;;;;;3.35;100.00;97651.19;5573350;31;33302;-72
2023/01/18 02:29:39;;;;;;;;;;;;;;;3.38;100.00;97650.00;5560989;31;33247;-71
2023/01/18 02:32:50;;;;;;;;;;;;;;;3.38;100.00;97650.81;5587560;31;33915;-71
2023/01/18 02:35:59;;;;;;;;;;;;;;;3.45;100.00;97641.19;5574088;31;34307;-72
2023/01/18 02:39:12;;;;;;;;;;;;;;;3.54;100.00;97646.28;5587537;31;34808;-72
2023/01/18 02:49:19;;;;;;;;;;;;;;;3.80;100.00;97649.12;5587323;31;34392;-72
2023/01/18 02:52:37;;;;;;;;;;;;;;;3.99;100.00;97637.94;5573888;31;33855;-72
2023/01/18 02:55:53;;;;;;;;;;;;;;;4.09;100.00;97630.53;5573841;31;34275;-71
2023/01/18 02:59:04;;;;;;;;;;;;;;;4.18;100.00;97639.88;5573101;31;34291;-72
2023/01/18 03:02:23;;;;;;;;;;;;;;;4.27;100.00;97643.94;5561607;31;34193;-72
2023/01/18 03:05:35;;;;;;;;;;;;;;;4.35;100.00;97638.56;5574177;31;34281;-72
2023/01/18 03:08:43;;;;;;;;;;;;;;;4.34;100.00;97630.87;5560445;31;33199;-72
2023/01/18 03:11:57;;;;;;;;;;;;;;;4.37;100.00;97625.22;5587206;31;34788;-72
2023/01/18 03:15:15;;;;;;;;;;;;;;;4.33;100.00;97624.00;5573653;31;34668;-72
2023/01/18 03:18:58;;;;;;;;;;;;;;;4.36;100.00;97640.16;5566038;32;33018;-72
2023/01/18 03:22:10;;;;;;;;;;;;;;;4.36;100.00;97626.22;5567532;32;34009;-72
2023/01/18 03:25:16;;;;;;;;;;;;;;;4.38;100.00;97622.41;5567631;32;33981;-72
2023/01/18 03:35:33;;;;;;;;;;;;;;;4.21;100.00;97628.97;5567366;32;34357;-73
2023/01/18 03:38:45;;;;;;;;;;;;;;;4.27;100.00;97625.56;5567502;32;34275;-73
2023/01/18 03:42:00;;;;;;;;;;;;;;;4.22;100.00;97611.41;5566104;32;34196;-72
2023/01/18 03:45:21;;;;;;;;;;;;;;;4.21;100.00;97591.44;5566558;32;34048;-73
2023/01/18 03:48:27;;;;;;;;;;;;;;;4.22;100.00;97595.66;5567166;32;34920;-73
2023/01/18 03:51:40;;;;;;;;;;;;;;;4.21;100.00;97609.81;5565748;32;32817;-72
2023/01/18 03:55:01;;;;;;;;;;;;;;;4.20;100.00;97609.00;5565679;32;33165;-73
2023/01/18 03:58:09;;;;;;;;;;;;;;;4.26;100.00;97602.19;5566345;32;34927;-73
2023/01/18 04:01:15;;;;;;;;;;;;;;;4.22;100.00;97600.91;5567106;32;34864;-73
2023/01/18 04:04:26;;;;;;;;;;;;;;;4.16;100.00;97601.72;5566234;32;34706;-72
2023/01/18 04:07:36;;;;;;;;;;;;;;;4.21;100.00;97612.44;5567051;32;34681;-73
2023/01/18 04:10:47;;;;;;;;;;;;;;;4.25;100.00;97621.53;5567267;32;34375;-72
2023/01/18 04:13:54;;;;;;;;;;;;;;;4.32;100.00;97627.62;5566079;32;34943;-72
2023/01/18 04:17:03;;;;;;;;;;;;;;;4.36;100.00;97628.84;5565801;32;34549;-73
2023/01/18 04:20:10;;;;;;;;;;;;;;;4.34;100.00;97620.38;5566721;32;35043;-72
2023/01/18 04:23:16;;;;;;;;;;;;;;;4.33;100.00;97634.50;5565828;32;34182;-72
2023/01/18 04:26:24;;;;;;;;;;;;;;;4.25;100.00;97624.97;5552735;32;35104;-71
2023/01/18 04:29:34;;;;;;;;;;;;;;;4.22;100.00;97616.66;5566771;32;33761;-72
2023/01/18 04:32:45;;;;;;;;;;;;;;;4.22;100.00;97598.28;5548654;32;34868;-70
2023/01/18 04:35:54;;;;;;;;;;;;;;;4.19;100.00;97599.50;5546042;32;34282;-70
2023/01/18 04:39:04;;;;;;;;;;;;;;;4.16;100.00;97607.78;5546803;32;35041;-70
2023/01/18 04:42:11;;;;;;;;;;;;;;;4.15;100.00;97619.28;5533258;32;35154;-71
2023/01/18 04:45:18;;;;;;;;;;;;;;;4.26;100.00;97649.41;5545860;32;34163;-71
2023/01/18 04:48:26;;;;;;;;;;;;;;;4.22;100.00;97651.59;5549058;32;34626;-70
2023/01/18 04:51:33;;;;;;;;;;;;;;;4.20;100.00;97661.50;5549219;32;34340;-70
2023/01/18 04:54:44;;;;;;;;;;;;;;;4.30;100.00;97651.44;5549777;32;34609;-69
2023/01/18 04:57:58;;;;;;;;;;;;;;;4.31;100.00;97658.28;5548441;32;34709;-69
2023/01/18 05:01:06;;;;;;;;;;;;;;;4.27;100.00;97659.69;5549375;32;34614;-70
2023/01/18 05:04:13;;;;;;;;;;;;;;;4.31;100.00;97662.72;5548589;32;34562;-69
2023/01/18 05:07:24;;;;;;;;;;;;;;;4.26;100.00;97639.69;5548429;32;34679;-69
2023/01/18 05:10:35;;;;;;;;;;;;;;;4.21;100.00;97667.53;5549230;32;34843;-69
2023/01/18 05:13:42;;;;;;;;;;;;;;;4.20;100.00;97695.59;5549150;32;34308;-70
2023/01/18 05:16:51;;;;;;;;;;;;;;;4.21;100.00;97702.44;5557611;32;34965;-71
2023/01/18 05:19:59;;;;;;;;;;;;;;;4.15;100.00;97708.47;5568724;32;34328;-71
2023/01/18 05:23:09;;;;;;;;;;;;;;;4.18;100.00;97728.25;5541715;32;34189;-71
2023/01/18 05:26:21;;;;;;;;;;;;;;;4.11;100.00;97724.81;5554767;32;34637;-71
2023/01/18 05:29:28;;;;;;;;;;;;;;;4.06;100.00;97720.13;5568293;32;34620;-72
2023/01/18 05:32:36;;;;;;;;;;;;;;;4.02;100.00;97713.63;5567797;32;34099;-72
2023/01/18 05:35:54;;;;;;;;;;;;;;;3.97;100.00;97704.72;5567611;32;34046;-71
2023/01/18 05:39:00;;;;;;;;;;;;;;;3.99;100.00;97721.87;5567371;32;35167;-72
2023/01/18 05:42:09;;;;;;;;;;;;;;;3.94;100.00;97730.31;5568619;32;34057;-72
2023/01/18 05:45:15;;;;;;;;;;;;;;;3.90;100.00;97729.09;5554951;32;33466;-72
2023/01/18 05:48:24;;;;;;;;;;;;;;;3.99;100.00;97721.06;5558122;32;33866;-72
2023/01/18 05:51:32;;;;;;;;;;;;;;;3.97;100.00;97723.88;5568402;32;34150;-73
2023/01/18 05:54:37;;;;;;;;;;;;;;;3.94;100.00;97721.63;5553933;32;33188;-73
2023/01/18 05:57:47;;;;;;;;;;;;;;;3.90;100.00;97715.16;5540871;32;32833;-73
2023/01/18 06:00:53;;;;;;;;;;;;;;;3.77;100.00;97704.56;5554791;32;35348;-73
2023/01/18 06:04:01;;;;;;;;;;;;;;;3.69;100.00;97699.44;5554979;32;34370;-73
2023/01/18 06:07:08;;;;;;;;;;;;;;;3.60;100.00;97692.72;5568282;32;34030;-73
2023/01/18 06:10:14;;;;;;;;;;;;;;;3.69;100.00;97688.97;5554495;32;33481;-73
2023/01/18 06:13:19;;;;;;;;;;;;;;;3.54;100.00;97702.16;5568519;32;34316;-73
2023/01/18 06:16:23;;;;;;;;;;;;;;;3.42;100.00;97716.78;5553532;32;32972;-73
2023/01/18 06:19:28;;;;;;;;;;;;;;;3.34;100.00;97716.91;5568094;32;34599;-73
2023/01/18 06:22:32;;;;;;;;;;;;;;;3.24;100.00;97717.22;5541363;32;33067;-72
2023/01/18 06:25:37;;;;;;;;;;;;;;;3.19;100.00;97708.28;5553250;32;35006;-72
2023/01/18 06:28:41;;;;;;;;;;;;;;;3.21;100.00;97714.94;5567445;32;33994;-72
2023/01/18 06:31:49;;;;;;;;;;;;;;;3.24;100.00;97738.16;5554639;32;34291;-72
2023/01/18 06:34:54;;;;;;;;;;;;;;;3.25;100.00;97739.78;5567868;32;34019;-71
2023/01/18 06:37:58;;;;;;;;;;;;;;;3.25;100.00;97731.91;5567800;32;34436;-72
2023/01/18 06:41:03;;;;;;;;;;;;;;;3.22;100.00;97739.34;5554340;32;34150;-72
2023/01/18 06:44:07;;;;;;;;;;;;;;;3.15;100.00;97720.91;5553983;32;34258;-72
2023/01/18 06:47:14;;;;;;;;;;;;;;;3.11;100.00;97658.63;5566714;32;34888;-72
2023/01/18 06:50:21;;;;;;;;;;;;;;;3.03;100.00;97641.22;5554029;32;34395;-73
2023/01/18 06:53:25;;;;;;;;;;;;;;;2.97;100.00;97684.69;5567039;32;33769;-72
2023/01/18 06:56:30;;;;;;;;;;;;;;;2.96;100.00;97692.72;5552962;32;34376;-73
2023/01/18 06:59:34;;;;;;;;;;;;;;;3.07;100.00;97692.22;5564293;32;33018;-73
2023/01/18 07:02:38;;;;;;;;;;;;;;;3.28;100.00;97754.31;5566458;32;34054;-73
2023/01/18 07:05:45;;;;;;;;;;;;;;;3.18;100.00;97770.34;5566474;32;34528;-74
2023/01/18 07:08:49;;;;;;;;;;;;;;;3.23;100.00;97777.66;5567214;32;34660;-73
2023/01/18 07:11:53;;;;;;;;;;;;;;;3.24;100.00;97772.22;5566623;32;34792;-73
2023/01/18 07:14:56;;;;;;;;;;;;;;;3.24;100.00;97780.09;5542043;32;33197;-74
2023/01/18 07:18:12;;;;;;;;;;;;;;;3.21;100.00;97769.16;5566908;32;34269;-74
2023/01/18 07:21:18;;;;;;;;;;;;;;;3.32;100.00;97777.34;5552797;32;34304;-74
2023/01/18 07:24:22;;;;;;;;;;;;;;;3.25;100.00;97778.25;5540393;32;34588;-74
2023/01/18 07:27:30;;;;;;;;;;;;;;;3.06;100.00;97796.19;5567508;32;35058;-74
2023/01/18 07:30:36;;;;;;;;;;;;;;;2.97;100.00;97823.47;5565621;32;34100;-74
2023/01/18 07:33:41;;;;;;;;;;;;;;;2.91;100.00;97846.94;5555757;32;34293;-74
2023/01/18 07:36:45;;;;;;;;;;;;;;;2.95;100.00;97859.50;5553069;32;34032;-74
2023/01/18 07:39:51;;;;;;;;;;;;;;;2.93;100.00;97863.28;5566232;32;34457;-75
2023/01/18 07:42:57;;;;;;;;;;;;;;;3.00;100.00;97856.34;5566208;32;33685;-75
2023/01/18 07:46:02;;;;;;;;;;;;;;;3.03;100.00;97856.81;5566285;32;33887;-75
2023/01/18 07:49:10;;;;;;;;;;;;;;;2.98;100.00;97876.66;5553338;32;33630;-75
2023/01/18 07:52:16;;;;;;;;;;;;;;;2.91;100.00;97878.38;5566227;32;33406;-75
2023/01/18 07:55:21;;;;;;;;;;;;;;;2.86;100.00;97902.47;5566325;32;34110;-74
2023/01/18 07:58:26;;;;;;;;;;;;;;;2.89;100.00;97906.56;5540263;32;33955;-75
2023/01/18 08:01:32;;;;;;;;;;;;;;;2.96;100.00;97918.75;5565078;32;33988;-75
2023/01/18 08:04:38;;;;;;;;;;;;;;;3.05;100.00;97922.91;5566620;32;34983;-74
2023/01/18 08:07:43;;;;;;;;;;;;;;;3.18;100.00;97924.09;5552994;32;34339;-73
2023/01/18 08:10:47;;;;;;;;;;;;;;;3.41;100.00;97924.78;5553218;32;34287;-74
2023/01/18 08:13:53;;;;;;;;;;;;;;;3.50;100.00;97934.19;5540174;32;33686;-71
2023/01/18 08:16:58;;;;;;;;;;;;;;;3.42;100.00;97942.97;5539172;32;32833;-74
2023/01/18 08:20:03;;;;;;;;;;;;;;;3.38;100.00;97954.00;5540261;32;34927;-73
2023/01/18 08:23:07;;;;;;;;;;;;;;;3.44;100.00;97956.69;5567655;32;34175;-74
2023/01/18 08:26:13;;;;;;;;;;;;;;;3.72;100.00;97969.97;5568965;32;34351;-73
2023/01/18 08:29:17;;;;;;;;;;;;;;;3.92;100.00;97983.31;5568196;32;34921;-73
2023/01/18 08:32:22;;;;;;;;;;;;;;;3.99;100.00;97989.44;5569120;32;34480;-73
2023/01/18 08:35:27;;;;;;;;;;;;;;;3.92;100.00;97993.81;5569231;32;34862;-72
2023/01/18 08:38:34;;;;;;;;;;;;;;;3.80;100.00;98006.56;5569090;32;34284;-72
2023/01/18 08:41:38;;;;;;;;;;;;;;;3.79;100.00;98010.19;5568051;32;34657;-72
2023/01/18 08:44:41;;;;;;;;;;;;;;;3.72;100.00;97979.63;5569055;32;34681;-72
2023/01/18 08:47:45;;;;;;;;;;;;;;;3.76;100.00;97989.56;5568989;32;34217;-73
2023/01/18 08:50:50;;;;;;;;;;;;;;;3.71;100.00;97991.13;5568170;32;34258;-71
2023/01/18 08:53:57;;;;;;;;;;;;;;;3.70;100.00;98011.28;5567685;32;34270;-72
2023/01/18 08:57:01;;;;;;;;;;;;;;;3.69;100.00;98025.38;5554796;32;32996;-72
2023/01/18 09:00:06;;;;;;;;;;;;;;;3.64;100.00;98027.72;5567619;32;35028;-72
2023/01/18 09:03:09;;;;;;;;;;;;;;;3.61;100.00;98038.59;5567931;32;34329;-70
2023/01/18 09:06:13;;;;;;;;;;;;;;;3.66;100.00;98059.00;5554824;32;33722;-72
2023/01/18 09:09:16;;;;;;;;;;;;;;;3.63;100.00;98062.78;5567549;32;33232;-72
2023/01/18 09:12:20;;;;;;;;;;;;;;;3.76;100.00;98068.25;5567737;32;34886;-73
2023/01/18 09:15:24;;;;;;;;;;;;;;;3.95;100.00;98045.91;5554985;32;35258;-72
2023/01/18 09:18:29;;;;;;;;;;;;;;;4.27;100.00;98061.22;5568264;32;34535;-71
2023/01/18 09:21:33;;;;;;;;;;;;;;;4.73;100.00;98082.75;5567643;32;34655;-69
2023/01/18 09:24:38;;;;;;;;;;;;;;;4.94;100.00;98099.50;5554809;32;34247;-70
2023/01/18 09:27:42;;;;;;;;;;;;;;;4.93;100.00;98122.34;5554576;32;33074;-69
2023/01/18 09:30:46;;;;;;;;;;;;;;;5.20;100.00;98136.53;5567240;32;36455;-70
2023/01/18 09:33:50;;;;;;;;;;;;;;;5.42;100.00;98156.53;5566920;32;34888;-71
2023/01/18 09:36:56;;;;;;;;;;;;;;;5.21;100.00;98170.53;5567636;32;34619;-73
2023/01/18 09:40:01;;;;;;;;;;;;;;;4.71;100.00;98188.97;5554609;32;33423;-71
2023/01/18 09:43:14;;;;;;;;;;;;;;;4.41;100.00;98184.72;5565740;32;35476;-71
2023/01/18 09:46:22;;;;;;;;;;;;;;;4.16;100.00;98200.78;5541480;32;34699;-72
2023/01/18 09:49:35;;;;;;;;;;;;;;;4.05;100.00;98210.87;5540768;32;33635;-73
2023/01/18 09:52:55;;;;;;;;;;;;;;;4.07;100.00;98214.94;5540457;32;34700;-71
2023/01/18 09:56:07;;;;;;;;;;;;;;;4.14;100.00;98209.81;5554284;32;32867;-71
2023/01/18 09:59:12;;;;;;;;;;;;;;;4.25;100.00;98225.94;5568034;32;34321;-71
2023/01/18 10:02:18;;;;;;;;;;;;;;;4.33;100.00;98212.72;5567775;32;34497;-72
2023/01/18 10:05:27;;;;;;;;;;;;;;;4.22;100.00;98228.91;5554386;32;34264;-71
2023/01/18 10:08:31;;;;;;;;;;;;;;;4.36;100.00;98232.53;5554262;32;34950;-72
2023/01/18 10:11:49;;;;;;;;;;;;;;;4.48;100.00;98240.78;5540743;32;33771;-72
2023/01/18 10:15:04;;;;;;;;;;;;;;;4.63;100.00;98247.66;5542142;32;34263;-72
2023/01/18 10:18:09;;;;;;;;;;;;;;;4.84;100.00;98246.13;5553988;32;34055;-72
2023/01/18 10:21:25;;;;;;;;;;;;;;;4.87;100.00;98262.31;5566703;32;34703;-71
2023/01/18 10:24:30;;;;;;;;;;;;;;;4.79;100.00;98265.06;5554494;31;33727;-71
2023/01/18 10:27:36;;;;;;;;;;;;;;;4.54;100.00;98275.03;5573610;31;34302;-72
2023/01/18 10:30:54;;;;;;;;;;;;;;;4.46;100.00;98292.63;5573734;31;34878;-70
2023/01/18 10:33:59;;;;;;;;;;;;;;;4.54;100.00;98298.66;5567239;31;33299;-72
2023/01/18 10:37:13;;;;;;;;;;;;;;;4.45;100.00;98294.47;5567425;32;34046;-70
2023/01/18 10:40:16;;;;;;;;;;;;;;;4.51;100.00;98287.66;5567978;32;35054;-71
2023/01/18 10:43:23;;;;;;;;;;;;;;;4.59;100.00;98290.22;5554331;31;33124;-73
2023/01/18 10:46:28;;;;;;;;;;;;;;;4.60;100.00;98291.88;5559916;31;33210;-72
2023/01/18 10:49:40;;;;;;;;;;;;;;;4.49;100.00;98306.25;5573460;31;34626;-73
2023/01/18 10:52:44;;;;;;;;;;;;;;;4.50;100.00;98320.19;5555308;32;34678;-71
2023/01/18 10:56:00;;;;;;;;;;;;;;;4.66;100.00;98333.13;5540253;32;34781;-73
2023/01/18 10:59:04;;;;;;;;;;;;;;;4.89;100.00;98335.72;5553756;32;32671;-72
2023/01/18 11:02:18;;;;;;;;;;;;;;;4.99;100.00;98334.41;5566604;32;34028;-72
2023/01/18 11:05:42;;;;;;;;;;;;;;;4.96;100.00;98347.09;5553887;32;35297;-72
2023/01/18 11:08:48;;;;;;;;;;;;;;;5.08;100.00;98356.97;5540471;32;34122;-71
2023/01/18 11:15:34;;;;;;;;;;;;;;;5.43;100.00;98358.03;5553470;32;34741;-73
2023/01/18 11:18:39;;;;;;;;;;;;;;;5.43;100.00;98357.19;5552560;32;34015;-73
2023/01/18 11:21:44;;;;;;;;;;;;;;;5.63;100.00;98368.78;5539259;32;34192;-73
2023/01/18 11:24:52;;;;;;;;;;;;;;;5.69;100.00;98368.03;5552087;32;34341;-73
2023/01/18 11:28:00;;;;;;;;;;;;;;;5.89;100.00;98387.53;5565660;32;34580;-73
2023/01/18 11:31:07;;;;;;;;;;;;;;;6.23;100.00;98391.28;5552157;32;34776;-73
2023/01/18 11:34:30;;;;;;;;;;;;;;;6.29;100.00;98401.06;5565786;32;34152;-73
2023/01/18 11:37:35;;;;;;;;;;;;;;;6.46;100.00;98413.78;5565531;32;34664;-73
2023/01/18 11:40:40;;;;;;;;;;;;;;;7.01;100.00;98414.00;5552729;32;34105;-72
2023/01/18 11:43:51;;;;;;;;;;;;;;;7.11;100.00;98411.84;5564672;32;34963;-72
2023/01/18 11:46:58;;;;;;;;;;;;;;;6.61;100.00;98420.78;5551670;32;33502;-72
2023/01/18 11:50:05;;;;;;;;;;;;;;;6.33;100.00;98418.94;5562594;32;32974;-72
2023/01/18 11:53:43;;;;;;;;;;;;;;;6.23;100.00;98407.91;5563840;32;34353;-72
2023/01/18 11:56:48;;;;;;;;;;;;;;;6.49;100.00;98429.19;5552323;32;34905;-72
2023/01/18 11:59:53;;;;;;;;;;;;;;;7.09;100.00;98445.50;5565017;32;34787;-72
2023/01/18 12:03:15;;;;;;;;;;;;;;;7.38;100.00;98448.72;5552305;32;33923;-73
2023/01/18 12:06:28;;;;;;;;;;;;;;;7.64;100.00;98450.69;5529672;32;33997;-71
2023/01/18 12:09:46;;;;;;;;;;;;;;;7.96;100.00;98459.75;5552384;32;33793;-71
2023/01/18 12:12:53;;;;;;;;;;;;;;;8.15;100.00;98464.28;5550602;32;34052;-72
2023/01/18 12:15:59;;;;;;;;;;;;;;;8.80;100.00;98470.75;5533461;32;989242;-72
2023/01/18 12:19:03;;;;;;;;;;;;;;;8.49;100.00;98479.22;5566582;32;34093;-72
2023/01/18 12:22:22;;;;;;;;;;;;;;;8.92;100.00;98478.84;5552774;32;33477;-72
2023/01/18 12:25:34;;;;;;;;;;;;;;;8.95;100.00;98483.75;5552438;32;34224;-72
2023/01/18 12:28:44;;;;;;;;;;;;;;;8.99;100.00;98500.84;5566429;32;34671;-74
2023/01/18 12:31:51;;;;;;;;;;;;;;;9.19;100.00;98504.31;5552285;32;34895;-71
2023/01/18 12:34:59;;;;;;;;;;;;;;;9.31;94.51;98513.22;5565913;32;34863;-72
2023/01/18 12:38:24;;;;;;;;;;;;;;;9.51;96.34;98500.78;5566269;32;34332;-73
2023/01/18 12:41:32;;;;;;;;;;;;;;;9.57;96.39;98512.41;5551946;32;33634;-71
2023/01/18 12:44:40;;;;;;;;;;;;;;;10.40;88.41;98521.31;5565985;32;34066;-72
2023/01/18 12:47:52;;;;;;;;;;;;;;;9.84;88.63;98532.47;5551244;32;35283;-73
2023/01/18 12:50:59;;;;;;;;;;;;;;;10.41;84.87;98541.47;5565772;32;33874;-72
2023/01/18 12:54:25;;;;;;;;;;;;;;;10.68;82.67;98529.72;5551958;32;34959;-71
2023/01/18 12:57:31;;;;;;;;;;;;;;;9.93;88.76;98533.06;5565370;32;34026;-72
2023/01/18 13:00:37;;;;;;;;;;;;;;;9.80;93.97;98538.41;5551421;32;32880;-71
2023/01/18 13:03:45;;;;;;;;;;;;;;;9.75;88.57;98546.16;5538487;32;33501;-71
2023/01/18 13:06:49;;;;;;;;;;;;;;;10.37;88.22;98556.16;5538528;32;33845;-72
2023/01/18 13:09:53;;;;;;;;;;;;;;;10.11;82.84;98567.69;5553660;32;35602;-72
2023/01/18 13:12:58;;;;;;;;;;;;;;;9.97;83.01;98572.16;5539298;32;33629;-71
2023/01/18 13:16:21;;;;;;;;;;;;;;;9.21;85.62;98575.50;5568381;32;34745;-71
2023/01/18 13:19:28;;;;;;;;;;;;;;;8.76;89.59;98574.44;5568100;32;34436;-71
2023/01/18 13:22:36;;;;;;;;;;;;;;;8.27;94.07;98586.88;5555128;32;34851;-70
2023/01/18 13:25:59;;;;;;;;;;;;;;;8.12;98.59;98593.28;5541837;32;33132;-70
2023/01/18 13:29:05;;;;;;;;;;;;;;;7.97;100.00;98603.16;5554367;32;34602;-71
2023/01/18 13:32:25;;;;;;;;;;;;;;;7.70;100.00;98618.00;5568329;32;34842;-71
2023/01/18 13:35:32;;;;;;;;;;;;;;;7.81;100.00;98618.28;5568352;32;34290;-70
2023/01/18 13:38:48;;;;;;;;;;;;;;;7.85;100.00;98626.63;5555021;32;34184;-71
2023/01/18 13:42:03;;;;;;;;;;;;;;;7.70;100.00;98626.72;5568268;32;34376;-70
2023/01/18 13:45:17;;;;;;;;;;;;;;;7.46;100.00;98621.03;5568426;32;34489;-71
2023/01/18 13:48:44;;;;;;;;;;;;;;;7.52;100.00;98618.47;5554338;32;35368;-70
2023/01/18 13:51:50;;;;;;;;;;;;;;;7.57;100.00;98615.25;5554379;32;34112;-70
2023/01/18 13:54:55;;;;;;;;;;;;;;;7.55;100.00;98610.16;5567860;32;34492;-71
2023/01/18 13:58:01;;;;;;;;;;;;;;;7.70;100.00;98607.44;5554041;32;32973;-71
2023/01/18 14:01:06;;;;;;;;;;;;;;;7.65;100.00;98610.66;5567340;32;34707;-73
2023/01/18 14:04:27;;;;;;;;;;;;;;;7.98;100.00;98615.34;5554617;32;35029;-71
2023/01/18 14:07:46;;;;;;;;;;;;;;;7.53;100.00;98622.75;5567719;32;34200;-71
2023/01/18 14:10:53;;;;;;;;;;;;;;;7.50;100.00;98640.78;5566891;32;34383;-71
2023/01/18 14:14:01;;;;;;;;;;;;;;;7.56;100.00;98627.63;5566866;32;34133;-72
2023/01/18 14:17:14;;;;;;;;;;;;;;;7.50;100.00;98638.97;5553507;32;34162;-71
2023/01/18 14:20:33;;;;;;;;;;;;;;;7.34;100.00;98645.31;5539898;32;34637;-71
2023/01/18 14:23:50;;;;;;;;;;;;;;;7.25;100.00;98649.09;5552929;32;34484;-71
2023/01/18 14:26:56;;;;;;;;;;;;;;;7.09;100.00;98664.34;5553683;32;33961;-72
2023/01/18 14:30:01;;;;;;;;;;;;;;;7.06;100.00;98673.44;5564850;32;34220;-71
2023/01/18 14:33:41;;;;;;;;;;;;;;;7.10;100.00;98681.78;5550952;32;34132;-70
2023/01/18 14:36:46;;;;;;;;;;;;;;;7.07;100.00;98679.53;5475569;32;33306;-70
2023/01/18 14:40:04;;;;;;;;;;;;;;;6.82;100.00;98671.97;5499534;32;34819;-72
2023/01/18 14:43:19;;;;;;;;;;;;;;;6.68;100.00;98682.53;5493843;32;34164;-72
2023/01/18 14:46:25;;;;;;;;;;;;;;;6.57;100.00;98696.19;5503719;32;34277;-71
2023/01/18 14:49:33;;;;;;;;;;;;;;;6.49;100.00;98700.53;5480541;32;34219;-71
2023/01/18 14:52:41;;;;;;;;;;;;;;;6.38;100.00;98701.00;5492121;32;34969;-71
2023/01/18 14:56:07;;;;;;;;;;;;;;;6.27;100.00;98690.91;5488032;32;34994;-69
2023/01/18 14:59:18;;;;;;;;;;;;;;;6.22;100.00;98695.09;5492379;32;34073;-71
2023/01/18 15:02:25;;;;;;;;;;;;;;;6.16;100.00;98698.44;5494475;32;34287;-71
2023/01/18 15:05:30;;;;;;;;;;;;;;;6.16;100.00;98695.81;5505901;32;35175;-71
2023/01/18 15:08:34;;;;;;;;;;;;;;;6.09;100.00;98690.47;5488978;32;34586;-72
2023/01/18 15:11:39;;;;;;;;;;;;;;;6.09;100.00;98686.00;5559523;32;34188;-72
2023/01/18 15:14:47;;;;;;;;;;;;;;;5.97;100.00;98684.81;5552283;32;34047;-71
2023/01/18 15:17:53;;;;;;;;;;;;;;;5.88;100.00;98687.69;5540167;32;34998;-71
2023/01/18 15:20:58;;;;;;;;;;;;;;;5.73;100.00;98681.56;5551792;32;33312;-71
2023/01/18 15:24:11;;;;;;;;;;;;;;;5.86;100.00;98674.69;5566947;32;34267;-71
2023/01/18 15:27:17;;;;;;;;;;;;;;;5.74;100.00;98667.41;5552793;32;33692;-71
2023/01/18 15:30:23;;;;;;;;;;;;;;;5.75;100.00;98669.03;5552920;32;34264;-71
2023/01/18 15:33:28;;;;;;;;;;;;;;;5.69;100.00;98668.75;5551147;32;33166;-72
2023/01/18 15:36:34;;;;;;;;;;;;;;;5.61;100.00;98682.00;5551706;32;33146;-71
2023/01/18 15:39:55;;;;;;;;;;;;;;;5.39;100.00;98679.38;5567017;32;34239;-71
2023/01/18 15:43:08;;;;;;;;;;;;;;;5.23;100.00;98678.50;5551632;32;32684;-70
2023/01/18 15:46:16;;;;;;;;;;;;;;;5.29;100.00;98697.19;5564488;32;34239;-72
2023/01/18 15:49:21;;;;;;;;;;;;;;;5.14;100.00;98716.34;5541129;31;32280;-71
2023/01/18 15:52:33;;;;;;;;;;;;;;;5.17;100.00;98716.00;5540062;32;34575;-71
2023/01/18 15:55:40;;;;;;;;;;;;;;;5.20;100.00;98747.19;5564126;32;34956;-71
2023/01/18 15:58:46;;;;;;;;;;;;;;;5.10;100.00;98746.59;5565145;32;34602;-71
2023/01/18 16:02:13;;;;;;;;;;;;;;;5.09;100.00;98741.50;5566399;32;34515;-71
2023/01/18 16:05:20;;;;;;;;;;;;;;;5.14;100.00;98749.69;5552024;32;34375;-70
2023/01/18 16:08:26;;;;;;;;;;;;;;;5.20;100.00;98747.19;5565721;32;34882;-71
2023/01/18 16:11:40;;;;;;;;;;;;;;;5.25;100.00;98747.50;5565175;32;33133;-70
2023/01/18 16:14:51;;;;;;;;;;;;;;;5.28;100.00;98748.16;5560682;32;32849;-70
2023/01/18 16:18:05;;;;;;;;;;;;;;;5.35;100.00;98751.72;5565584;32;34852;-70
2023/01/18 16:21:12;;;;;;;;;;;;;;;5.32;100.00;98771.31;5552467;32;34686;-70
2023/01/18 16:24:26;;;;;;;;;;;;;;;5.38;100.00;98767.94;5552664;32;35290;-70
2023/01/18 16:27:32;;;;;;;;;;;;;;;5.52;100.00;98766.37;5565418;32;33627;-71
2023/01/18 16:30:39;;;;;;;;;;;;;;;5.61;100.00;98765.34;5566192;32;34281;-71
2023/01/18 16:33:47;;;;;;;;;;;;;;;5.62;100.00;98773.06;5552065;32;34787;-70
2023/01/18 16:36:55;;;;;;;;;;;;;;;5.64;100.00;98763.19;5557640;32;33944;-71
2023/01/18 16:40:01;;;;;;;;;;;;;;;5.61;100.00;98762.72;5539666;32;33956;-71
2023/01/18 16:43:20;;;;;;;;;;;;;;;5.56;100.00;98765.06;5566696;32;34261;-71
2023/01/18 16:46:27;;;;;;;;;;;;;;;5.43;100.00;98770.06;5554490;32;34839;-71
2023/01/18 16:49:35;;;;;;;;;;;;;;;5.35;100.00;98764.88;5555124;32;35261;-72
2023/01/18 16:52:41;;;;;;;;;;;;;;;5.25;100.00;98760.66;5557660;32;33022;-72
2023/01/18 16:55:49;;;;;;;;;;;;;;;5.20;100.00;98765.59;5568178;32;34277;-72
2023/01/18 16:58:55;;;;;;;;;;;;;;;5.18;100.00;98775.47;5555471;32;34899;-73
2023/01/18 17:02:03;;;;;;;;;;;;;;;5.10;100.00;98783.41;5555171;32;34467;-73
2023/01/18 17:05:12;;;;;;;;;;;;;;;5.05;100.00;98788.34;5555010;32;34833;-72